createdAt,value
2018-07-19T00:02:01.661Z,97405.67
2018-07-19T00:04:30.423Z,97404.77
2018-07-19T00:06:59.145Z,97393.00
2018-07-19T00:09:27.926Z,97398.66
2018-07-19T00:11:56.930Z,97397.24
2018-07-19T00:14:25.645Z,97389.73
2018-07-19T00:16:55.146Z,97396.23
2018-07-19T00:19:24.005Z,97385.72
2018-07-19T00:21:52.670Z,97381.23
2018-07-19T00:24:21.407Z,97373.48
2018-07-19T00:26:50.037Z,97376.23
2018-07-19T00:29:18.711Z,97383.11
2018-07-19T00:31:47.517Z,97381.45
2018-07-19T00:34:16.268Z,97357.47
2018-07-19T00:36:44.998Z,97361.33
2018-07-19T00:39:13.823Z,97366.70
2018-07-19T00:41:45.427Z,97356.49
2018-07-19T00:44:15.876Z,97344.88
2018-07-19T00:46:45.066Z,97333.48
2018-07-19T00:49:13.826Z,97336.98
2018-07-19T00:51:42.457Z,97347.99
2018-07-19T00:54:11.215Z,97343.00
2018-07-19T00:56:39.808Z,97333.98
2018-07-19T00:59:08.584Z,97333.61
2018-07-19T01:01:37.319Z,97315.58
2018-07-19T01:04:06.204Z,97312.79
2018-07-19T01:06:35.093Z,97309.87
2018-07-19T01:09:04.698Z,97308.38
2018-07-19T01:11:39.997Z,97318.50
2018-07-19T01:14:09.290Z,97318.58
2018-07-19T01:16:37.989Z,97327.20
2018-07-19T01:19:06.555Z,97328.63
2018-07-19T01:21:35.225Z,97322.07
2018-07-19T01:24:04.049Z,97305.20
2018-07-19T01:26:32.652Z,97300.22
2018-07-19T01:29:01.238Z,97297.22
2018-07-19T01:31:29.886Z,97300.78
2018-07-19T01:33:58.513Z,97304.09
2018-07-19T01:36:27.210Z,97298.79
2018-07-19T01:38:55.849Z,97298.10
2018-07-19T01:42:40.275Z,97285.38
2018-07-19T01:45:10.166Z,97276.70
2018-07-19T01:47:38.855Z,97280.91
2018-07-19T01:50:08.796Z,97262.73
2018-07-19T01:52:37.597Z,97260.89
2018-07-19T01:55:06.957Z,97261.62
2018-07-19T01:57:35.691Z,97276.38
2018-07-19T02:00:04.739Z,97276.80
2018-07-19T02:02:33.394Z,97295.84
2018-07-19T02:05:02.502Z,97302.55
2018-07-19T02:07:31.357Z,97299.62
2018-07-19T02:10:00.085Z,97307.70
2018-07-19T02:12:28.830Z,97308.72
2018-07-19T02:14:57.495Z,97305.15
2018-07-19T02:17:26.319Z,97313.38
2018-07-19T02:19:55.158Z,97314.64
2018-07-19T02:22:23.988Z,97325.21
2018-07-19T02:24:52.689Z,97321.66
2018-07-19T02:27:21.497Z,97328.87
2018-07-19T02:29:50.227Z,97329.09
2018-07-19T02:32:18.967Z,97332.47
2018-07-19T02:34:47.718Z,97324.86
2018-07-19T02:37:16.450Z,97324.16
2018-07-19T02:39:45.084Z,97313.41
2018-07-19T02:42:14.434Z,97304.32
2018-07-19T02:44:43.311Z,97298.81
2018-07-19T02:47:12.361Z,97292.77
2018-07-19T02:49:42.325Z,96877.28
2018-07-19T02:52:11.141Z,97268.82
2018-07-19T02:54:39.861Z,97292.57
2018-07-19T02:57:08.765Z,97268.48
2018-07-19T02:59:38.097Z,97266.51
2018-07-19T03:02:07.041Z,97262.26
2018-07-19T03:04:35.952Z,97262.09
2018-07-19T03:07:05.493Z,97254.39
2018-07-19T03:09:34.510Z,97242.14
2018-07-19T03:12:03.278Z,97229.65
2018-07-19T03:14:32.038Z,97219.30
2018-07-19T03:17:00.818Z,97238.36
2018-07-19T03:19:29.546Z,97234.27
2018-07-19T03:21:58.385Z,97231.30
2018-07-19T03:24:27.066Z,97235.03
2018-07-19T03:26:55.665Z,97243.88
2018-07-19T03:29:24.378Z,97236.68
2018-07-19T03:31:53.160Z,97228.26
2018-07-19T03:34:22.022Z,97221.14
2018-07-19T03:36:50.835Z,97230.06
2018-07-19T03:39:19.609Z,97232.80
2018-07-19T03:41:48.458Z,97259.23
2018-07-19T03:44:19.342Z,97282.08
2018-07-19T03:46:48.146Z,97291.50
2018-07-19T03:49:16.917Z,97305.03
2018-07-19T03:51:45.504Z,97344.04
2018-07-19T03:54:14.577Z,97356.53
2018-07-19T03:56:43.524Z,97405.44
2018-07-19T03:59:12.163Z,97425.16
2018-07-19T04:01:41.172Z,97441.82
2018-07-19T04:04:10.141Z,97446.52
2018-07-19T04:06:38.982Z,97453.77
2018-07-19T04:09:08.265Z,97463.91
2018-07-19T04:11:37.385Z,97466.91
2018-07-19T04:14:06.333Z,97468.70
2018-07-19T04:16:35.092Z,97475.45
2018-07-19T04:19:03.849Z,97481.39
2018-07-19T04:21:33.755Z,97479.74
2018-07-19T04:24:03.233Z,97478.37
2018-07-19T04:26:32.678Z,97483.88
2018-07-19T04:29:01.462Z,97491.55
2018-07-19T04:31:30.328Z,97492.13
2018-07-19T04:33:59.637Z,97493.03
2018-07-19T04:36:34.897Z,97496.10
2018-07-19T04:39:04.679Z,97493.50
2018-07-19T04:41:33.660Z,97496.08
2018-07-19T04:44:02.325Z,97501.39
2018-07-19T04:46:31.005Z,97503.13
2018-07-19T04:48:59.597Z,97502.52
2018-07-19T04:51:28.269Z,97499.06
2018-07-19T04:53:56.996Z,97498.52
2018-07-19T04:56:25.748Z,97504.10
2018-07-19T04:58:54.476Z,97506.49
2018-07-19T05:01:23.156Z,97499.94
2018-07-19T05:03:51.941Z,97499.13
2018-07-19T05:06:20.562Z,97502.72
2018-07-19T05:08:49.330Z,97507.17
2018-07-19T05:11:18.000Z,97509.73
2018-07-19T05:13:46.905Z,97508.64
2018-07-19T05:16:15.532Z,97505.38
2018-07-19T05:18:44.269Z,97506.20
2018-07-19T05:21:13.220Z,97508.72
2018-07-19T05:23:41.932Z,97509.05
2018-07-19T05:26:10.609Z,97509.72
2018-07-19T05:28:39.490Z,97508.73
2018-07-19T05:31:08.293Z,97516.56
2018-07-19T05:33:37.062Z,97503.77
2018-07-19T05:36:05.773Z,97513.66
2018-07-19T05:38:34.511Z,97509.64
2018-07-19T05:41:03.139Z,97517.18
2018-07-19T05:43:31.944Z,97511.85
2018-07-19T05:46:00.542Z,97511.70
2018-07-19T05:48:30.102Z,97514.95
2018-07-19T05:50:58.717Z,97515.79
2018-07-19T05:53:27.331Z,97513.88
2018-07-19T05:55:56.344Z,97518.09
2018-07-19T05:58:25.020Z,97514.48
2018-07-19T06:00:53.767Z,97519.16
2018-07-19T06:03:22.434Z,97520.80
2018-07-19T06:05:51.088Z,97525.16
2018-07-19T06:08:19.656Z,97524.59
2018-07-19T06:10:48.233Z,97519.56
2018-07-19T06:13:16.839Z,97517.91
2018-07-19T06:15:45.610Z,97519.05
2018-07-19T06:18:14.222Z,97523.92
2018-07-19T06:20:42.913Z,97517.99
2018-07-19T06:23:11.514Z,97516.38
2018-07-19T06:25:40.298Z,97521.23
2018-07-19T06:28:08.984Z,97521.16
2018-07-19T06:30:37.641Z,97522.13
2018-07-19T06:33:06.550Z,97520.60
2018-07-19T06:35:35.149Z,97520.95
2018-07-19T06:38:03.725Z,97521.30
2018-07-19T06:40:32.416Z,97523.11
2018-07-19T06:43:01.041Z,97530.71
2018-07-19T06:45:29.687Z,97526.94
2018-07-19T06:47:58.251Z,97526.41
2018-07-19T06:50:26.862Z,97524.17
2018-07-19T06:52:55.520Z,97530.69
2018-07-19T06:55:24.262Z,97526.07
2018-07-19T06:57:52.938Z,97527.22
2018-07-19T07:00:21.649Z,97526.62
2018-07-19T07:02:50.396Z,97520.50
2018-07-19T07:05:19.034Z,97525.09
2018-07-19T07:07:47.715Z,97530.21
2018-07-19T07:10:16.370Z,97529.02
2018-07-19T07:12:45.015Z,97530.30
2018-07-19T07:15:13.610Z,97526.42
2018-07-19T07:17:42.283Z,97526.14
2018-07-19T07:20:10.989Z,97530.61
2018-07-19T07:22:39.657Z,97520.88
2018-07-19T07:25:08.242Z,97519.05
2018-07-19T07:27:36.977Z,97523.94
2018-07-19T07:30:06.187Z,97521.14
2018-07-19T07:32:34.748Z,97524.36
2018-07-19T07:35:03.357Z,97520.20
2018-07-19T07:37:31.937Z,97522.74
2018-07-19T07:40:00.553Z,97524.16
2018-07-19T07:42:29.274Z,97521.05
2018-07-19T07:44:57.896Z,97533.11
2018-07-19T07:47:26.533Z,97528.67
2018-07-19T07:49:55.146Z,97528.39
2018-07-19T07:52:23.857Z,97523.27
2018-07-19T07:54:52.514Z,97525.28
2018-07-19T07:57:21.149Z,97522.88
2018-07-19T07:59:49.858Z,97528.47
2018-07-19T08:02:18.467Z,97535.95
2018-07-19T08:04:47.117Z,97519.97
2018-07-19T08:07:15.731Z,97526.14
2018-07-19T08:09:44.574Z,97527.47
2018-07-19T08:12:13.212Z,97521.12
2018-07-19T08:14:41.880Z,97521.39
2018-07-19T08:17:10.482Z,97528.03
2018-07-19T08:19:39.178Z,97525.20
2018-07-19T08:22:07.858Z,97527.03
2018-07-19T08:24:36.534Z,97529.30
2018-07-19T08:27:05.194Z,97519.96
2018-07-19T08:29:33.788Z,97523.80
2018-07-19T08:32:02.390Z,97521.88
2018-07-19T08:34:31.070Z,97523.25
2018-07-19T08:36:59.811Z,97521.02
2018-07-19T08:39:28.432Z,97522.64
2018-07-19T08:41:57.048Z,97517.45
2018-07-19T08:44:25.665Z,97522.98
2018-07-19T08:46:54.217Z,97518.06
2018-07-19T08:49:22.759Z,97510.45
2018-07-19T08:51:51.441Z,97513.25
2018-07-19T08:54:20.008Z,97507.83
2018-07-19T08:56:48.589Z,97520.41
2018-07-19T08:59:17.162Z,97521.76
2018-07-19T09:01:45.718Z,97520.92
2018-07-19T09:04:14.310Z,97517.61
2018-07-19T09:06:42.919Z,97513.86
2018-07-19T09:09:11.625Z,97516.78
2018-07-19T09:11:40.181Z,97518.00
2018-07-19T09:14:08.790Z,97516.30
2018-07-19T09:16:37.378Z,97516.48
2018-07-19T09:19:05.959Z,97512.57
2018-07-19T09:21:34.522Z,97520.24
2018-07-19T09:24:03.154Z,97510.39
2018-07-19T09:26:31.798Z,97508.14
2018-07-19T09:29:00.428Z,97511.78
2018-07-19T09:31:28.996Z,97506.94
2018-07-19T09:33:57.609Z,97508.66
2018-07-19T09:36:26.199Z,97498.72
2018-07-19T09:38:54.918Z,97494.03
2018-07-19T09:41:23.640Z,97498.94
2018-07-19T09:43:52.395Z,97498.38
2018-07-19T09:46:20.979Z,97498.87
2018-07-19T09:48:49.583Z,97501.15
2018-07-19T09:51:18.155Z,97504.23
2018-07-19T09:53:46.793Z,97503.22
2018-07-19T09:56:15.390Z,97504.50
2018-07-19T09:58:44.006Z,97507.71
2018-07-19T10:01:19.640Z,97506.20
2018-07-19T10:03:49.615Z,97502.25
2018-07-19T10:06:18.270Z,97499.91
2018-07-19T10:08:46.923Z,97501.58
2018-07-19T10:11:16.017Z,97501.94
2018-07-19T10:13:45.046Z,97498.70
2018-07-19T10:16:13.565Z,97502.95
2018-07-19T10:18:42.466Z,97501.09
2018-07-19T10:21:11.150Z,97499.28
2018-07-19T10:23:39.881Z,97495.67
2018-07-19T10:26:08.535Z,97492.20
2018-07-19T10:28:37.197Z,97492.75
2018-07-19T10:31:05.770Z,97486.42
2018-07-19T10:33:34.410Z,97487.24
2018-07-19T10:36:03.016Z,97491.77
2018-07-19T10:38:31.611Z,97482.86
2018-07-19T10:41:00.164Z,97481.48
2018-07-19T10:43:34.588Z,97475.39
2018-07-19T10:46:04.620Z,97480.09
2018-07-19T10:48:38.044Z,97475.07
2018-07-19T10:51:11.754Z,97478.49
2018-07-19T10:53:42.022Z,97479.75
2018-07-19T10:56:10.576Z,97481.80
2018-07-19T10:58:39.331Z,97469.14
2018-07-19T11:01:08.131Z,97467.34
2018-07-19T11:03:36.767Z,97482.21
2018-07-19T11:06:05.367Z,97474.70
2018-07-19T11:08:33.922Z,97465.34
2018-07-19T11:11:02.483Z,97470.61
2018-07-19T11:13:31.109Z,97466.44
2018-07-19T11:15:59.618Z,97457.67
2018-07-19T11:18:28.777Z,97461.39
2018-07-19T11:20:57.281Z,97469.72
2018-07-19T11:23:25.921Z,97467.19
2018-07-19T11:25:54.467Z,97470.80
2018-07-19T11:28:23.048Z,97468.62
2018-07-19T11:30:51.572Z,97469.95
2018-07-19T11:33:20.110Z,97470.87
2018-07-19T11:35:48.990Z,97470.23
2018-07-19T11:38:17.702Z,97461.98
2018-07-19T11:40:46.265Z,97452.55
2018-07-19T11:43:14.829Z,97459.94
2018-07-19T11:45:43.415Z,97457.91
2018-07-19T11:48:11.957Z,97450.00
2018-07-19T11:50:40.523Z,97437.95
2018-07-19T11:53:09.162Z,97441.72
2018-07-19T11:55:37.826Z,97436.19
2018-07-19T11:58:06.509Z,97424.80
2018-07-19T12:00:35.006Z,97437.39
2018-07-19T12:03:03.647Z,97441.48
2018-07-19T12:05:32.148Z,97439.75
2018-07-19T12:08:00.656Z,97437.75
2018-07-19T12:10:29.212Z,97432.91
2018-07-19T12:12:57.787Z,97436.70
2018-07-19T12:15:26.325Z,97425.04
2018-07-19T12:17:54.906Z,97423.59
2018-07-19T12:20:23.443Z,97416.91
2018-07-19T12:22:51.974Z,97422.91
2018-07-19T12:25:20.525Z,97415.94
2018-07-19T12:27:49.075Z,97415.60
2018-07-19T12:30:17.625Z,97419.92
2018-07-19T12:32:46.140Z,97422.04
2018-07-19T12:35:14.666Z,97423.80
2018-07-19T12:37:43.218Z,97422.30
2018-07-19T12:40:11.762Z,97423.52
2018-07-19T12:42:40.329Z,97419.38
2018-07-19T12:45:08.884Z,97418.66
2018-07-19T12:47:37.491Z,97413.46
2018-07-19T12:50:06.677Z,97417.33
2018-07-19T12:52:35.252Z,97414.91
2018-07-19T12:55:03.819Z,97408.98
2018-07-19T12:57:32.314Z,97407.59
2018-07-19T13:00:00.897Z,97400.67
2018-07-19T13:02:29.442Z,97399.70
2018-07-19T13:04:58.051Z,97402.61
2018-07-19T13:07:26.580Z,97397.22
2018-07-19T13:09:55.094Z,97396.31
2018-07-19T13:12:23.731Z,97398.00
2018-07-19T13:14:52.287Z,97396.14
2018-07-19T13:17:20.893Z,97393.55
2018-07-19T13:19:49.380Z,97396.55
2018-07-19T13:22:19.665Z,97390.09
2018-07-19T13:24:48.280Z,97391.41
2018-07-19T13:27:16.816Z,97387.69
2018-07-19T13:29:45.357Z,97384.87
2018-07-19T13:32:13.920Z,97382.76
2018-07-19T13:34:42.510Z,97380.63
2018-07-19T13:37:11.104Z,97389.16
2018-07-19T13:39:39.840Z,97385.70
2018-07-19T13:42:08.376Z,97386.03
2018-07-19T13:44:36.890Z,97379.78
2018-07-19T13:47:05.425Z,97375.60
2018-07-19T13:49:34.185Z,97376.05
2018-07-19T13:52:02.879Z,97370.06
2018-07-19T13:54:47.554Z,97365.55
2018-07-19T13:57:16.282Z,97364.59
2018-07-19T13:59:44.862Z,97363.89
2018-07-19T14:02:14.750Z,97368.53
2018-07-19T14:04:43.409Z,97362.12
2018-07-19T14:07:12.243Z,97364.74
2018-07-19T14:09:42.613Z,97364.63
2018-07-19T14:12:13.969Z,97360.27
2018-07-19T14:14:44.303Z,97356.41
2018-07-19T14:17:13.870Z,97347.33
2018-07-19T14:19:42.726Z,97342.05
2018-07-19T14:22:11.902Z,97350.16
2018-07-19T14:24:40.841Z,97343.28
2018-07-19T14:27:09.880Z,97346.55
2018-07-19T14:29:39.189Z,97336.23
2018-07-19T14:32:08.475Z,97334.94
2018-07-19T14:34:37.437Z,97345.40
2018-07-19T14:37:06.509Z,97346.69
2018-07-19T14:39:35.713Z,97347.98
2018-07-19T14:42:04.261Z,97344.09
2018-07-19T14:44:33.090Z,97343.14
2018-07-19T14:47:01.665Z,97340.63
2018-07-19T14:49:30.241Z,97344.55
2018-07-19T14:51:58.763Z,97335.47
2018-07-19T14:54:27.456Z,97328.95
2018-07-19T14:56:56.093Z,97331.47
2018-07-19T14:59:24.660Z,97331.83
2018-07-19T15:01:53.191Z,97318.37
2018-07-19T15:04:21.774Z,97314.95
2018-07-19T15:06:50.321Z,97322.82
2018-07-19T15:09:18.879Z,97322.38
2018-07-19T15:11:47.484Z,97319.27
2018-07-19T15:14:16.019Z,97318.80
2018-07-19T15:16:44.649Z,97319.16
2018-07-19T15:19:13.255Z,97314.80
2018-07-19T15:21:41.927Z,97308.36
2018-07-19T15:24:10.587Z,97303.79
2018-07-19T15:26:39.141Z,97299.85
2018-07-19T15:29:07.730Z,97309.25
2018-07-19T15:31:36.335Z,97302.34
2018-07-19T15:34:04.982Z,97305.35
2018-07-19T15:36:33.713Z,97301.93
2018-07-19T15:39:02.279Z,97299.38
2018-07-19T15:41:30.865Z,97301.17
2018-07-19T15:43:59.404Z,97300.38
2018-07-19T15:46:27.977Z,97303.15
2018-07-19T15:48:56.455Z,97300.16
2018-07-19T15:51:24.994Z,97297.12
2018-07-19T15:53:53.506Z,97296.72
2018-07-19T15:56:22.733Z,97296.23
2018-07-19T15:58:57.270Z,97291.84
2018-07-19T16:01:26.087Z,97293.13
2018-07-19T16:03:54.818Z,97292.27
2018-07-19T16:06:23.405Z,97290.11
2018-07-19T16:08:52.081Z,97286.66
2018-07-19T16:11:20.754Z,97285.38
2018-07-19T16:13:49.536Z,97285.80
2018-07-19T16:16:18.549Z,97282.78
2018-07-19T16:18:47.169Z,97283.25
2018-07-19T16:21:15.790Z,97280.66
2018-07-19T16:23:44.762Z,97291.53
2018-07-19T16:26:13.468Z,97284.20
2018-07-19T16:28:42.437Z,97288.53
2018-07-19T16:31:11.030Z,97286.81
2018-07-19T16:33:43.032Z,97284.23
2018-07-19T16:36:11.827Z,97279.94
2018-07-19T16:38:41.184Z,97282.06
2018-07-19T16:41:09.853Z,97284.22
2018-07-19T16:43:39.153Z,97278.63
2018-07-19T16:46:09.043Z,97277.77
2018-07-19T16:48:38.278Z,97271.70
2018-07-19T16:51:06.858Z,97276.48
2018-07-19T16:53:36.706Z,97273.02
2018-07-19T16:56:05.605Z,97273.02
2018-07-19T16:58:34.307Z,97269.14
2018-07-19T17:01:04.401Z,97270.44
2018-07-19T17:03:33.123Z,97274.30
2018-07-19T17:06:10.509Z,97270.02
2018-07-19T17:08:40.207Z,97270.44
2018-07-19T17:11:09.606Z,97269.60
2018-07-19T17:13:38.827Z,97258.78
2018-07-19T17:16:07.803Z,97272.97
2018-07-19T17:18:36.476Z,97270.84
2018-07-19T17:21:05.191Z,97269.55
2018-07-19T17:23:35.094Z,97268.67
2018-07-19T17:26:04.181Z,97271.24
2018-07-19T17:28:33.714Z,97268.15
2018-07-19T17:31:19.762Z,97274.19
2018-07-19T17:33:48.522Z,97273.31
2018-07-19T17:36:17.265Z,97264.70
2018-07-19T17:38:46.414Z,97268.55
2018-07-19T17:41:15.018Z,97270.69
2018-07-19T17:43:44.113Z,97267.65
2018-07-19T17:46:12.852Z,97271.86
2018-07-19T17:48:41.599Z,97270.55
2018-07-19T17:51:10.246Z,97262.80
2018-07-19T17:53:38.981Z,97269.67
2018-07-19T17:56:07.697Z,97270.95
2018-07-19T17:58:36.377Z,97265.26
2018-07-19T18:01:05.099Z,97271.61
2018-07-19T18:03:33.806Z,97267.72
2018-07-19T18:06:02.428Z,97265.58
2018-07-19T18:08:35.605Z,97261.66
2018-07-19T18:11:04.811Z,97262.92
2018-07-19T18:13:33.405Z,97264.53
2018-07-19T18:16:01.937Z,97263.16
2018-07-19T18:18:30.512Z,97262.69
2018-07-19T18:20:59.067Z,97264.80
2018-07-19T18:23:27.721Z,97265.19
2018-07-19T18:25:56.305Z,97265.53
2018-07-19T18:28:24.897Z,97264.59
2018-07-19T18:30:53.469Z,97261.52
2018-07-19T18:33:22.463Z,97271.70
2018-07-19T18:35:51.097Z,97266.86
2018-07-19T18:38:19.716Z,97276.62
2018-07-19T18:40:48.394Z,97276.93
2018-07-19T18:43:16.928Z,97272.58
2018-07-19T18:45:45.555Z,97276.77
2018-07-19T18:48:14.141Z,97279.24
2018-07-19T18:50:43.713Z,97276.09
2018-07-19T18:53:12.812Z,97280.58
2018-07-19T18:55:42.042Z,97280.34
2018-07-19T18:58:10.629Z,97281.45
2018-07-19T19:00:39.177Z,97280.45
2018-07-19T19:03:07.732Z,97283.33
2018-07-19T19:05:36.322Z,97275.52
2018-07-19T19:08:05.551Z,97052.95
2018-07-19T19:10:45.838Z,97288.14
2018-07-19T19:13:14.530Z,97282.66
2018-07-19T19:15:43.223Z,97290.38
2018-07-19T19:18:12.817Z,97294.19
2018-07-19T19:20:42.281Z,97291.12
2018-07-19T19:23:14.037Z,97294.41
2018-07-19T19:25:50.180Z,97293.07
2018-07-19T19:28:18.875Z,97298.64
2018-07-19T19:30:47.508Z,97299.44
2018-07-19T19:33:16.243Z,97291.45
2018-07-19T19:35:44.825Z,97298.17
2018-07-19T19:38:13.450Z,97296.09
2018-07-19T19:40:42.172Z,97301.36
2018-07-19T19:43:10.760Z,97302.36
2018-07-19T19:45:39.367Z,97305.89
2018-07-19T19:48:07.955Z,97305.27
2018-07-19T19:50:36.574Z,97303.75
2018-07-19T19:53:05.155Z,97305.47
2018-07-19T19:55:34.382Z,97299.78
2018-07-19T19:58:03.044Z,97304.06
2018-07-19T20:00:33.844Z,97302.71
2018-07-19T20:03:02.570Z,97304.43
2018-07-19T20:05:31.343Z,97307.15
2018-07-19T20:08:00.051Z,97309.09
2018-07-19T20:10:28.775Z,97307.16
2018-07-19T20:12:57.522Z,97307.41
2018-07-19T20:15:26.548Z,97305.98
2018-07-19T20:17:55.666Z,97310.77
2018-07-19T20:20:24.382Z,97314.27
2018-07-19T20:22:53.427Z,97316.27
2018-07-19T20:25:22.077Z,97319.38
2018-07-19T20:27:50.642Z,97326.66
2018-07-19T20:30:26.122Z,97324.38
2018-07-19T20:32:54.789Z,97326.84
2018-07-19T20:35:23.568Z,97321.05
2018-07-19T20:37:52.337Z,97327.55
2018-07-19T20:40:21.044Z,97329.45
2018-07-19T20:42:49.912Z,97331.83
2018-07-19T20:45:18.689Z,97329.61
2018-07-19T20:47:48.572Z,97330.98
2018-07-19T20:50:18.958Z,97332.84
2018-07-19T20:52:47.600Z,97328.31
2018-07-19T20:55:16.440Z,97330.73
2018-07-19T20:57:45.188Z,97337.14
2018-07-19T21:00:14.096Z,97335.59
2018-07-19T21:02:42.860Z,97334.62
2018-07-19T21:05:11.661Z,97336.89
2018-07-19T21:07:40.641Z,97339.11
2018-07-19T21:10:09.512Z,97334.77
2018-07-19T21:12:38.296Z,97337.02
2018-07-19T21:15:07.600Z,97343.05
2018-07-19T21:17:36.349Z,97337.86
2018-07-19T21:20:05.044Z,97341.20
2018-07-19T21:22:33.936Z,97343.15
2018-07-19T21:25:02.718Z,97343.30
2018-07-19T21:27:31.617Z,97345.03
2018-07-19T21:30:00.482Z,97351.92
2018-07-19T21:32:29.202Z,97349.06
2018-07-19T21:34:57.943Z,97350.30
2018-07-19T21:37:26.658Z,97351.56
2018-07-19T21:39:55.381Z,97351.95
2018-07-19T21:42:24.206Z,97355.32
2018-07-19T21:44:52.982Z,97351.45
2018-07-19T21:47:21.658Z,97355.43
2018-07-19T21:49:51.194Z,97353.14
2018-07-19T21:52:20.016Z,97357.19
2018-07-19T21:54:48.793Z,97357.02
2018-07-19T21:57:17.530Z,97352.09
2018-07-19T21:59:46.242Z,97355.97
2018-07-19T22:02:15.548Z,97355.41
2018-07-19T22:04:44.408Z,97348.75
2018-07-19T22:07:13.224Z,97351.33
2018-07-19T22:09:41.971Z,97354.86
2018-07-19T22:12:10.689Z,97354.53
2018-07-19T22:14:39.330Z,97352.68
2018-07-19T22:17:08.106Z,97350.47
2018-07-19T22:19:36.934Z,97349.90
2018-07-19T22:22:05.727Z,97355.77
2018-07-19T22:24:34.484Z,97349.66
2018-07-19T22:27:03.768Z,97354.63
2018-07-19T22:29:32.549Z,97359.64
2018-07-19T22:32:01.233Z,97350.70
2018-07-19T22:34:30.082Z,97354.13
2018-07-19T22:36:59.076Z,97354.98
2018-07-19T22:39:27.754Z,97352.88
2018-07-19T22:41:56.474Z,97356.63
2018-07-19T22:44:25.134Z,97359.44
2018-07-19T22:46:53.853Z,97360.08
2018-07-19T22:49:22.569Z,97357.09
2018-07-19T22:51:51.284Z,97355.83
2018-07-19T22:54:20.814Z,97356.92
2018-07-19T22:56:49.537Z,97362.11
2018-07-19T22:59:18.413Z,97366.12
2018-07-19T23:01:47.220Z,97358.30
2018-07-19T23:04:15.909Z,97366.55
2018-07-19T23:06:44.747Z,97355.90
2018-07-19T23:09:13.470Z,97359.16
2018-07-19T23:11:42.155Z,97315.09
2018-07-19T23:14:10.889Z,97350.81
2018-07-19T23:16:39.660Z,97345.70
2018-07-19T23:19:08.368Z,97337.48
2018-07-19T23:21:37.045Z,97339.55
2018-07-19T23:24:05.823Z,97335.88
2018-07-19T23:26:34.709Z,97330.31
2018-07-19T23:29:03.495Z,97332.86
2018-07-19T23:31:32.319Z,97328.30
2018-07-19T23:34:01.160Z,97327.66
2018-07-19T23:36:33.058Z,97295.44
2018-07-19T23:39:06.669Z,97329.84
2018-07-19T23:41:40.271Z,97327.74
2018-07-19T23:44:14.856Z,97313.09
2018-07-19T23:46:47.341Z,97301.78
2018-07-19T23:49:16.119Z,97308.36
2018-07-19T23:51:44.846Z,97291.67
2018-07-19T23:54:13.493Z,97297.09
2018-07-19T23:56:42.784Z,97280.20
2018-07-19T23:59:11.500Z,97275.20
